JZA297 CYXC-CYVR
Flight info
| Callsign | JZA297 |
|---|---|
| Flight time | N/A |
| Altitude | 24000 |
| Route | BOOTH CANUC6 |
| Aircraft | DH8D/M-SDE2E3FGRY/H |
Departure
| Time | 2026-04-29 12:40 |
|---|---|
| Airport | Cranbrook/Canadian Rockies International Airport (CYXC) |
Arrival
| Time | N/A |
|---|---|
| Airport | Vancouver International Airport (CYVR) |
| Time | Latitude | Longitude | Altitude | Speed | Heading |
|---|---|---|---|---|---|
| 2026-04-29 11:44 | 49.61434 | -115.78479 | 3089 ft | 0 kts | 270° |
| 2026-04-29 12:31 | 49.61434 | -115.78471 | 3087 ft | 2 kts | 270° |
| 2026-04-29 12:31 | 49.61429 | -115.78451 | 3087 ft | 2 kts | 323° |
| 2026-04-29 12:31 | 49.61419 | -115.78447 | 3086 ft | 2 kts | 5° |
| 2026-04-29 12:31 | 49.61405 | -115.78449 | 3086 ft | 0 kts | 359° |
| 2026-04-29 12:32 | 49.61404 | -115.78449 | 3086 ft | 0 kts | 359° |
| 2026-04-29 12:34 | 49.61406 | -115.78449 | 3088 ft | 0 kts | 359° |
| 2026-04-29 12:34 | 49.61414 | -115.78449 | 3088 ft | 1 kts | 359° |
| 2026-04-29 12:35 | 49.61420 | -115.78449 | 3088 ft | 0 kts | 359° |
| 2026-04-29 12:35 | 49.61441 | -115.78448 | 3088 ft | 3 kts | 5° |
| 2026-04-29 12:35 | 49.61471 | -115.78429 | 3089 ft | 5 kts | 32° |
| 2026-04-29 12:35 | 49.61510 | -115.78381 | 3089 ft | 8 kts | 39° |
| 2026-04-29 12:36 | 49.61556 | -115.78323 | 3089 ft | 8 kts | 39° |
| 2026-04-29 12:36 | 49.61601 | -115.78267 | 3089 ft | 9 kts | 38° |
| 2026-04-29 12:36 | 49.61665 | -115.78220 | 3089 ft | 11 kts | 9° |
| 2026-04-29 12:36 | 49.61742 | -115.78217 | 3089 ft | 10 kts | 359° |
| 2026-04-29 12:37 | 49.61814 | -115.78219 | 3089 ft | 10 kts | 359° |
| 2026-04-29 12:37 | 49.61887 | -115.78220 | 3089 ft | 10 kts | 359° |
| 2026-04-29 12:37 | 49.61959 | -115.78222 | 3089 ft | 10 kts | 359° |
| 2026-04-29 12:37 | 49.62031 | -115.78223 | 3089 ft | 11 kts | 359° |
| 2026-04-29 12:38 | 49.62114 | -115.78226 | 3089 ft | 11 kts | 359° |
| 2026-04-29 12:38 | 49.62192 | -115.78230 | 3089 ft | 10 kts | 347° |
| 2026-04-29 12:38 | 49.62249 | -115.78290 | 3089 ft | 9 kts | 354° |
| 2026-04-29 12:38 | 49.62273 | -115.78223 | 3089 ft | 8 kts | 129° |
| 2026-04-29 12:39 | 49.62225 | -115.78222 | 3089 ft | 6 kts | 197° |
| 2026-04-29 12:39 | 49.62188 | -115.78228 | 3089 ft | 3 kts | 179° |
| 2026-04-29 12:39 | 49.62187 | -115.78228 | 3089 ft | 0 kts | 178° |
| 2026-04-29 12:39 | 49.62155 | -115.78227 | 3089 ft | 24 kts | 179° |
| 2026-04-29 12:40 | 49.61649 | -115.78215 | 3089 ft | 116 kts | 178° |
| 2026-04-29 12:40 | 49.60656 | -115.78176 | 3298 ft | 152 kts | 179° |
| 2026-04-29 12:40 | 49.59569 | -115.78123 | 3855 ft | 165 kts | 180° |
| 2026-04-29 12:40 | 49.58407 | -115.78114 | 4552 ft | 172 kts | 180° |
| 2026-04-29 12:41 | 49.57202 | -115.78117 | 5230 ft | 178 kts | 179° |
| 2026-04-29 12:41 | 49.55943 | -115.78101 | 5743 ft | 190 kts | 179° |
| 2026-04-29 12:41 | 49.54573 | -115.78075 | 6253 ft | 202 kts | 178° |
| 2026-04-29 12:41 | 49.53146 | -115.78040 | 6836 ft | 207 kts | 178° |
| 2026-04-29 12:42 | 49.51709 | -115.78004 | 7490 ft | 209 kts | 178° |
| 2026-04-29 12:42 | 49.50268 | -115.77967 | 8150 ft | 211 kts | 178° |
| 2026-04-29 12:42 | 49.48816 | -115.77930 | 8771 ft | 214 kts | 178° |
| 2026-04-29 12:42 | 49.47325 | -115.77916 | 9392 ft | 216 kts | 184° |
| 2026-04-29 12:43 | 49.45954 | -115.78752 | 9949 ft | 217 kts | 226° |
| 2026-04-29 12:43 | 49.45176 | -115.80708 | 10504 ft | 219 kts | 247° |
| 2026-04-29 12:43 | 49.44547 | -115.82863 | 11158 ft | 221 kts | 247° |
| 2026-04-29 12:43 | 49.43927 | -115.84996 | 11786 ft | 224 kts | 248° |
| 2026-04-29 12:44 | 49.43296 | -115.87171 | 12395 ft | 226 kts | 248° |
| 2026-04-29 12:44 | 49.42657 | -115.89373 | 13004 ft | 228 kts | 247° |
| 2026-04-29 12:44 | 49.42003 | -115.91621 | 13600 ft | 230 kts | 248° |
| 2026-04-29 12:44 | 49.41354 | -115.93850 | 14168 ft | 232 kts | 248° |
| 2026-04-29 12:45 | 49.40696 | -115.96107 | 14680 ft | 234 kts | 248° |
| 2026-04-29 12:45 | 49.40029 | -115.98392 | 15187 ft | 237 kts | 248° |
| 2026-04-29 12:45 | 49.39353 | -116.00708 | 15663 ft | 239 kts | 249° |
| 2026-04-29 12:45 | 49.38669 | -116.03050 | 16140 ft | 241 kts | 249° |
| 2026-04-29 12:46 | 49.37985 | -116.05386 | 16556 ft | 244 kts | 249° |
| 2026-04-29 12:46 | 49.37355 | -116.07803 | 16972 ft | 243 kts | 260° |
| 2026-04-29 12:46 | 49.37149 | -116.10358 | 17350 ft | 242 kts | 271° |
| 2026-04-29 12:46 | 49.37054 | -116.12932 | 17758 ft | 243 kts | 272° |
| 2026-04-29 12:47 | 49.36955 | -116.15540 | 18144 ft | 245 kts | 271° |
| 2026-04-29 12:47 | 49.36856 | -116.18122 | 18527 ft | 246 kts | 271° |
| 2026-04-29 12:47 | 49.36750 | -116.20756 | 18898 ft | 248 kts | 272° |
| 2026-04-29 12:47 | 49.36643 | -116.23393 | 19278 ft | 248 kts | 272° |
| 2026-04-29 12:48 | 49.36533 | -116.26042 | 19635 ft | 250 kts | 272° |
| 2026-04-29 12:48 | 49.36422 | -116.28674 | 19965 ft | 252 kts | 272° |
| 2026-04-29 12:48 | 49.36309 | -116.31346 | 20319 ft | 252 kts | 272° |
| 2026-04-29 12:48 | 49.36193 | -116.34039 | 20631 ft | 254 kts | 273° |
| 2026-04-29 12:49 | 49.36075 | -116.36752 | 20956 ft | 254 kts | 273° |
| 2026-04-29 12:49 | 49.35958 | -116.39455 | 21238 ft | 256 kts | 273° |
| 2026-04-29 12:49 | 49.35836 | -116.42207 | 21531 ft | 257 kts | 273° |
| 2026-04-29 12:49 | 49.35715 | -116.44936 | 21797 ft | 259 kts | 273° |
| 2026-04-29 12:50 | 49.35593 | -116.47684 | 22058 ft | 260 kts | 273° |
| 2026-04-29 12:50 | 49.35469 | -116.50457 | 22314 ft | 261 kts | 273° |
| 2026-04-29 12:50 | 49.35344 | -116.53217 | 22543 ft | 263 kts | 273° |
| 2026-04-29 12:50 | 49.35218 | -116.56006 | 22794 ft | 263 kts | 273° |
| 2026-04-29 12:51 | 49.35090 | -116.58828 | 23029 ft | 264 kts | 273° |
| 2026-04-29 12:51 | 49.34962 | -116.61603 | 23266 ft | 265 kts | 274° |
| 2026-04-29 12:51 | 49.34831 | -116.64441 | 23470 ft | 267 kts | 273° |
| 2026-04-29 12:51 | 49.34699 | -116.67291 | 23645 ft | 268 kts | 272° |
| 2026-04-29 12:52 | 49.34566 | -116.70161 | 23852 ft | 269 kts | 273° |
| 2026-04-29 12:52 | 49.34432 | -116.73045 | 23959 ft | 274 kts | 273° |
| 2026-04-29 12:52 | 49.34295 | -116.75995 | 23994 ft | 281 kts | 272° |
| 2026-04-29 12:52 | 49.34208 | -116.79015 | 23996 ft | 286 kts | 278° |
| 2026-04-29 12:53 | 49.34345 | -116.82034 | 24003 ft | 291 kts | 282° |
| 2026-04-29 12:53 | 49.34530 | -116.85145 | 24003 ft | 298 kts | 281° |
| 2026-04-29 12:53 | 49.34720 | -116.88367 | 24006 ft | 304 kts | 281° |
| 2026-04-29 12:53 | 49.34908 | -116.91608 | 24001 ft | 309 kts | 281° |
| 2026-04-29 12:54 | 49.35097 | -116.94935 | 23996 ft | 314 kts | 281° |
| 2026-04-29 12:54 | 49.35286 | -116.98278 | 23987 ft | 318 kts | 281° |
| 2026-04-29 12:54 | 49.35475 | -117.01682 | 23982 ft | 321 kts | 281° |
| 2026-04-29 12:54 | 49.35663 | -117.05083 | 23987 ft | 324 kts | 281° |
| 2026-04-29 12:55 | 49.35851 | -117.08533 | 23990 ft | 326 kts | 280° |
| 2026-04-29 12:55 | 49.36042 | -117.12051 | 23988 ft | 328 kts | 280° |
| 2026-04-29 12:55 | 49.36230 | -117.15528 | 23983 ft | 330 kts | 280° |
| 2026-04-29 12:55 | 49.36419 | -117.19049 | 23985 ft | 331 kts | 280° |
| 2026-04-29 12:56 | 49.36606 | -117.22559 | 23980 ft | 333 kts | 280° |
| 2026-04-29 12:56 | 49.36795 | -117.26109 | 23986 ft | 333 kts | 280° |
| 2026-04-29 12:56 | 49.36980 | -117.29638 | 23985 ft | 334 kts | 280° |
| 2026-04-29 12:56 | 49.37167 | -117.33199 | 23990 ft | 334 kts | 280° |
| 2026-04-29 12:57 | 49.37352 | -117.36749 | 23985 ft | 334 kts | 280° |
| 2026-04-29 12:57 | 49.37535 | -117.40282 | 23979 ft | 335 kts | 280° |
| 2026-04-29 12:57 | 49.37719 | -117.43844 | 23978 ft | 335 kts | 280° |
| 2026-04-29 12:57 | 49.37902 | -117.47423 | 23979 ft | 335 kts | 280° |
| 2026-04-29 12:58 | 49.38083 | -117.50957 | 23982 ft | 336 kts | 280° |
| 2026-04-29 12:58 | 49.38265 | -117.54554 | 23977 ft | 336 kts | 280° |
| 2026-04-29 12:58 | 49.38444 | -117.58101 | 23978 ft | 336 kts | 280° |
| 2026-04-29 12:58 | 49.38624 | -117.61703 | 23981 ft | 337 kts | 280° |
| 2026-04-29 12:59 | 49.38802 | -117.65268 | 23978 ft | 336 kts | 279° |
| 2026-04-29 12:59 | 49.38977 | -117.68817 | 23981 ft | 336 kts | 279° |
| 2026-04-29 12:59 | 49.39153 | -117.72387 | 23980 ft | 336 kts | 279° |
| 2026-04-29 12:59 | 49.39328 | -117.75988 | 23980 ft | 336 kts | 279° |
| 2026-04-29 13:00 | 49.39500 | -117.79527 | 23978 ft | 337 kts | 279° |
| 2026-04-29 13:00 | 49.39673 | -117.83094 | 23972 ft | 337 kts | 279° |
| 2026-04-29 13:00 | 49.39845 | -117.86696 | 23968 ft | 337 kts | 279° |
| 2026-04-29 13:00 | 49.40016 | -117.90292 | 23962 ft | 337 kts | 279° |
| 2026-04-29 13:01 | 49.40184 | -117.93843 | 23960 ft | 338 kts | 279° |
| 2026-04-29 13:01 | 49.40354 | -117.97456 | 23960 ft | 338 kts | 279° |
| 2026-04-29 13:01 | 49.40521 | -118.01032 | 23953 ft | 338 kts | 279° |
| 2026-04-29 13:01 | 49.40688 | -118.04646 | 23956 ft | 338 kts | 279° |
| 2026-04-29 13:02 | 49.40853 | -118.08219 | 23957 ft | 338 kts | 279° |
| 2026-04-29 13:02 | 49.41019 | -118.11842 | 23961 ft | 338 kts | 279° |
| 2026-04-29 13:02 | 49.41180 | -118.15406 | 23959 ft | 338 kts | 279° |
| 2026-04-29 13:02 | 49.41343 | -118.19016 | 23955 ft | 338 kts | 279° |
| 2026-04-29 13:03 | 49.41504 | -118.22607 | 23962 ft | 338 kts | 279° |
| 2026-04-29 13:03 | 49.41664 | -118.26204 | 23961 ft | 339 kts | 278° |
| 2026-04-29 13:03 | 49.41823 | -118.29800 | 23964 ft | 339 kts | 278° |
| 2026-04-29 13:03 | 49.41982 | -118.33423 | 23961 ft | 338 kts | 278° |
| 2026-04-29 13:04 | 49.42139 | -118.37027 | 23960 ft | 338 kts | 278° |
| 2026-04-29 13:04 | 49.42296 | -118.40649 | 23962 ft | 338 kts | 278° |
| 2026-04-29 13:04 | 49.42448 | -118.44220 | 23967 ft | 338 kts | 278° |
| 2026-04-29 13:04 | 49.42601 | -118.47811 | 23975 ft | 337 kts | 278° |
| 2026-04-29 13:05 | 49.42755 | -118.51442 | 23979 ft | 337 kts | 278° |
| 2026-04-29 13:05 | 49.42906 | -118.55040 | 23973 ft | 337 kts | 278° |
| 2026-04-29 13:05 | 49.43054 | -118.58588 | 23969 ft | 337 kts | 278° |
| 2026-04-29 13:05 | 49.43203 | -118.62183 | 23970 ft | 338 kts | 278° |
| 2026-04-29 13:06 | 49.43350 | -118.65781 | 23965 ft | 337 kts | 278° |
| 2026-04-29 13:06 | 49.43498 | -118.69408 | 23966 ft | 337 kts | 277° |
| 2026-04-29 13:06 | 49.43643 | -118.72990 | 23963 ft | 337 kts | 277° |
| 2026-04-29 13:06 | 49.43786 | -118.76563 | 23965 ft | 337 kts | 277° |
| 2026-04-29 13:07 | 49.43929 | -118.80146 | 23966 ft | 337 kts | 277° |
| 2026-04-29 13:07 | 49.44071 | -118.83749 | 23967 ft | 337 kts | 277° |
| 2026-04-29 13:07 | 49.44211 | -118.87318 | 23969 ft | 337 kts | 277° |
| 2026-04-29 13:07 | 49.44351 | -118.90912 | 23970 ft | 336 kts | 277° |
| 2026-04-29 13:08 | 49.44488 | -118.94476 | 23971 ft | 336 kts | 277° |
| 2026-04-29 13:08 | 49.44626 | -118.98085 | 23967 ft | 336 kts | 277° |
| 2026-04-29 13:08 | 49.44762 | -119.01666 | 23969 ft | 336 kts | 277° |
| 2026-04-29 13:08 | 49.44896 | -119.05229 | 23973 ft | 336 kts | 277° |
| 2026-04-29 13:09 | 49.45030 | -119.08822 | 23969 ft | 336 kts | 277° |
| 2026-04-29 13:09 | 49.45162 | -119.12395 | 23967 ft | 336 kts | 277° |
| 2026-04-29 13:09 | 49.45295 | -119.16015 | 23975 ft | 335 kts | 277° |
| 2026-04-29 13:09 | 49.45423 | -119.19542 | 23974 ft | 335 kts | 277° |
| 2026-04-29 13:10 | 49.45552 | -119.23123 | 23977 ft | 335 kts | 277° |
| 2026-04-29 13:10 | 49.45682 | -119.26731 | 23975 ft | 336 kts | 277° |
| 2026-04-29 13:10 | 49.45807 | -119.30278 | 23976 ft | 335 kts | 277° |
| 2026-04-29 13:10 | 49.45933 | -119.33853 | 23972 ft | 335 kts | 277° |
| 2026-04-29 13:11 | 49.46059 | -119.37472 | 23969 ft | 335 kts | 277° |
| 2026-04-29 13:11 | 49.46182 | -119.41033 | 23976 ft | 335 kts | 277° |
| 2026-04-29 13:11 | 49.46303 | -119.44596 | 23975 ft | 335 kts | 277° |
| 2026-04-29 13:11 | 49.46425 | -119.48183 | 23973 ft | 335 kts | 277° |
| 2026-04-29 13:12 | 49.46544 | -119.51739 | 23982 ft | 335 kts | 277° |
| 2026-04-29 13:12 | 49.46665 | -119.55357 | 23969 ft | 336 kts | 277° |
| 2026-04-29 13:12 | 49.46784 | -119.58952 | 23967 ft | 337 kts | 277° |
| 2026-04-29 13:12 | 49.46902 | -119.62569 | 23964 ft | 337 kts | 277° |
| 2026-04-29 13:13 | 49.47017 | -119.66106 | 23968 ft | 337 kts | 276° |
| 2026-04-29 13:13 | 49.47133 | -119.69724 | 23968 ft | 338 kts | 276° |
| 2026-04-29 13:13 | 49.47247 | -119.73326 | 24002 ft | 337 kts | 276° |
| 2026-04-29 13:13 | 49.47361 | -119.76962 | 23981 ft | 339 kts | 276° |
| 2026-04-29 13:14 | 49.47473 | -119.80543 | 23995 ft | 339 kts | 276° |
| 2026-04-29 13:14 | 49.47584 | -119.84159 | 24008 ft | 339 kts | 276° |
| 2026-04-29 13:14 | 49.47695 | -119.87782 | 24002 ft | 340 kts | 276° |
| 2026-04-29 13:14 | 49.47806 | -119.91455 | 24007 ft | 340 kts | 276° |
| 2026-04-29 13:15 | 49.47915 | -119.95097 | 24003 ft | 339 kts | 276° |
| 2026-04-29 13:15 | 49.48019 | -119.98669 | 24010 ft | 339 kts | 276° |
| 2026-04-29 13:15 | 49.48126 | -120.02331 | 24002 ft | 339 kts | 276° |
| 2026-04-29 13:15 | 49.48230 | -120.05949 | 24009 ft | 338 kts | 276° |
| 2026-04-29 13:16 | 49.48333 | -120.09543 | 24006 ft | 338 kts | 276° |
| 2026-04-29 13:16 | 49.48434 | -120.13134 | 24009 ft | 338 kts | 276° |
| 2026-04-29 13:16 | 49.48535 | -120.16777 | 24006 ft | 338 kts | 276° |
| 2026-04-29 13:16 | 49.48634 | -120.20373 | 24005 ft | 337 kts | 276° |
| 2026-04-29 13:17 | 49.48733 | -120.23988 | 24006 ft | 336 kts | 276° |
| 2026-04-29 13:17 | 49.48829 | -120.27561 | 24003 ft | 335 kts | 276° |
| 2026-04-29 13:17 | 49.48925 | -120.31139 | 24007 ft | 334 kts | 276° |
| 2026-04-29 13:17 | 49.49019 | -120.34697 | 24013 ft | 334 kts | 276° |
| 2026-04-29 13:18 | 49.49112 | -120.38284 | 24017 ft | 333 kts | 277° |
| 2026-04-29 13:18 | 49.49204 | -120.41821 | 24020 ft | 333 kts | 277° |
| 2026-04-29 13:18 | 49.49295 | -120.45384 | 24021 ft | 333 kts | 276° |
| 2026-04-29 13:18 | 49.49384 | -120.48930 | 24032 ft | 332 kts | 276° |
| 2026-04-29 13:19 | 49.49473 | -120.52515 | 24038 ft | 332 kts | 276° |
| 2026-04-29 13:19 | 49.49561 | -120.56077 | 24039 ft | 333 kts | 276° |
| 2026-04-29 13:19 | 49.49647 | -120.59610 | 24034 ft | 333 kts | 277° |
| 2026-04-29 13:19 | 49.49733 | -120.63196 | 24023 ft | 333 kts | 277° |
| 2026-04-29 13:20 | 49.49816 | -120.66724 | 24018 ft | 332 kts | 276° |
| 2026-04-29 13:20 | 49.49899 | -120.70295 | 24013 ft | 332 kts | 276° |
| 2026-04-29 13:20 | 49.49981 | -120.73832 | 24014 ft | 332 kts | 276° |
| 2026-04-29 13:20 | 49.50061 | -120.77386 | 24012 ft | 332 kts | 276° |
| 2026-04-29 13:21 | 49.50142 | -120.80952 | 24012 ft | 333 kts | 276° |
| 2026-04-29 13:21 | 49.50220 | -120.84508 | 24005 ft | 333 kts | 276° |
| 2026-04-29 13:21 | 49.50298 | -120.88099 | 24008 ft | 333 kts | 276° |
| 2026-04-29 13:21 | 49.50375 | -120.91655 | 24008 ft | 334 kts | 276° |
| 2026-04-29 13:22 | 49.50451 | -120.95222 | 24008 ft | 334 kts | 276° |
| 2026-04-29 13:22 | 49.50525 | -120.98776 | 24003 ft | 334 kts | 276° |
| 2026-04-29 13:22 | 49.50598 | -121.02325 | 24013 ft | 334 kts | 276° |
| 2026-04-29 13:22 | 49.50670 | -121.05901 | 24018 ft | 335 kts | 276° |
| 2026-04-29 13:23 | 49.50742 | -121.09489 | 24011 ft | 336 kts | 276° |
| 2026-04-29 13:23 | 49.50814 | -121.13118 | 24007 ft | 336 kts | 276° |
| 2026-04-29 13:23 | 49.50883 | -121.16710 | 24012 ft | 336 kts | 276° |
| 2026-04-29 13:23 | 49.50951 | -121.20296 | 24017 ft | 336 kts | 276° |
| 2026-04-29 13:24 | 49.51017 | -121.23849 | 24035 ft | 335 kts | 276° |
| 2026-04-29 13:24 | 49.51083 | -121.27442 | 24043 ft | 335 kts | 276° |
| 2026-04-29 13:24 | 49.51147 | -121.30997 | 24054 ft | 335 kts | 276° |
| 2026-04-29 13:24 | 49.51212 | -121.34588 | 24049 ft | 335 kts | 277° |
| 2026-04-29 13:25 | 49.51274 | -121.38168 | 24051 ft | 335 kts | 276° |
| 2026-04-29 13:25 | 49.51395 | -121.45328 | 24046 ft | 335 kts | 277° |
| 2026-04-29 13:25 | 49.51454 | -121.48903 | 24044 ft | 335 kts | 277° |
| 2026-04-29 13:26 | 49.51513 | -121.52497 | 24042 ft | 335 kts | 277° |
| 2026-04-29 13:26 | 49.51569 | -121.56046 | 24047 ft | 335 kts | 277° |
| 2026-04-29 13:26 | 49.51625 | -121.59654 | 24043 ft | 335 kts | 277° |
| 2026-04-29 13:26 | 49.51680 | -121.63197 | 24043 ft | 335 kts | 277° |
| 2026-04-29 13:27 | 49.51733 | -121.66793 | 24042 ft | 334 kts | 276° |
| 2026-04-29 13:27 | 49.51785 | -121.70348 | 24039 ft | 333 kts | 276° |
| 2026-04-29 13:27 | 49.51836 | -121.73888 | 24040 ft | 333 kts | 276° |
| 2026-04-29 13:27 | 49.51887 | -121.77460 | 24041 ft | 333 kts | 276° |
| 2026-04-29 13:28 | 49.51936 | -121.81031 | 24043 ft | 333 kts | 276° |
| 2026-04-29 13:28 | 49.51984 | -121.84607 | 24035 ft | 334 kts | 276° |
| 2026-04-29 13:28 | 49.52031 | -121.88164 | 24041 ft | 333 kts | 277° |
| 2026-04-29 13:28 | 49.52078 | -121.91744 | 24040 ft | 333 kts | 276° |
| 2026-04-29 13:29 | 49.52123 | -121.95329 | 24037 ft | 333 kts | 276° |
| 2026-04-29 13:29 | 49.52166 | -121.98861 | 24041 ft | 333 kts | 276° |
| 2026-04-29 13:29 | 49.52190 | -122.02426 | 24042 ft | 335 kts | 274° |
| 2026-04-29 13:29 | 49.51642 | -122.05968 | 24043 ft | 348 kts | 250° |
| 2026-04-29 13:30 | 49.50430 | -122.09181 | 24042 ft | 352 kts | 244° |
| 2026-04-29 13:30 | 49.49126 | -122.12401 | 24044 ft | 352 kts | 243° |
| 2026-04-29 13:30 | 49.47833 | -122.15584 | 24046 ft | 352 kts | 244° |
| 2026-04-29 13:30 | 49.46531 | -122.18793 | 24049 ft | 352 kts | 244° |
| 2026-04-29 13:31 | 49.45259 | -122.21975 | 24046 ft | 352 kts | 244° |
| 2026-04-29 13:31 | 49.43983 | -122.25180 | 24046 ft | 352 kts | 244° |
| 2026-04-29 13:31 | 49.42701 | -122.28401 | 24049 ft | 352 kts | 244° |
| 2026-04-29 13:31 | 49.41424 | -122.31610 | 24049 ft | 352 kts | 244° |
| 2026-04-29 13:32 | 49.40106 | -122.34804 | 24043 ft | 355 kts | 240° |
| 2026-04-29 13:32 | 49.38538 | -122.37722 | 24054 ft | 358 kts | 234° |
| 2026-04-29 13:32 | 49.36890 | -122.40558 | 24048 ft | 359 kts | 233° |
| 2026-04-29 13:32 | 49.35210 | -122.43440 | 24049 ft | 359 kts | 233° |
| 2026-04-29 13:33 | 49.33546 | -122.46271 | 24049 ft | 359 kts | 233° |
| 2026-04-29 13:33 | 49.31879 | -122.49091 | 24045 ft | 359 kts | 233° |
| 2026-04-29 13:33 | 49.30201 | -122.51935 | 24044 ft | 360 kts | 233° |
| 2026-04-29 13:33 | 49.28513 | -122.54794 | 24046 ft | 359 kts | 233° |
| 2026-04-29 13:34 | 49.26844 | -122.57629 | 24054 ft | 359 kts | 233° |
| 2026-04-29 13:34 | 49.25182 | -122.60461 | 24055 ft | 359 kts | 234° |
| 2026-04-29 13:34 | 49.23500 | -122.63325 | 24060 ft | 359 kts | 233° |
| 2026-04-29 13:34 | 49.21836 | -122.66156 | 24062 ft | 357 kts | 233° |
| 2026-04-29 13:35 | 49.20310 | -122.69061 | 24061 ft | 352 kts | 241° |
| 2026-04-29 13:35 | 49.18993 | -122.72256 | 24069 ft | 351 kts | 244° |
| 2026-04-29 13:35 | 49.17716 | -122.75436 | 24066 ft | 352 kts | 244° |
| 2026-04-29 13:35 | 49.16553 | -122.78671 | 24044 ft | 346 kts | 254° |
| 2026-04-29 13:36 | 49.16246 | -122.82200 | 24075 ft | 328 kts | 279° |
| 2026-04-29 13:36 | 49.16562 | -122.85608 | 24068 ft | 326 kts | 284° |
| 2026-04-29 13:36 | 49.16945 | -122.89027 | 24068 ft | 327 kts | 285° |
| 2026-04-29 13:36 | 49.17337 | -122.92458 | 24067 ft | 328 kts | 285° |
| 2026-04-29 13:37 | 49.17726 | -122.95840 | 24070 ft | 328 kts | 285° |
| 2026-04-29 13:37 | 49.18121 | -122.99277 | 24070 ft | 328 kts | 285° |
| 2026-04-29 13:37 | 49.18518 | -123.02733 | 24067 ft | 328 kts | 285° |
| 2026-04-29 13:37 | 49.18912 | -123.06174 | 24058 ft | 328 kts | 285° |
| 2026-04-29 13:38 | 49.19304 | -123.09583 | 24060 ft | 328 kts | 285° |
| 2026-04-29 13:38 | 49.19699 | -123.13024 | 24061 ft | 328 kts | 285° |
| 2026-04-29 13:38 | 49.20095 | -123.16473 | 24060 ft | 327 kts | 285° |
| 2026-04-29 13:38 | 49.20487 | -123.19884 | 24058 ft | 328 kts | 285° |
| 2026-04-29 13:39 | 49.20881 | -123.23322 | 24062 ft | 328 kts | 286° |
| 2026-04-29 13:39 | 49.21275 | -123.26749 | 24065 ft | 328 kts | 285° |
| 2026-04-29 13:39 | 49.21664 | -123.30151 | 24050 ft | 329 kts | 285° |
| 2026-04-29 13:39 | 49.22059 | -123.33616 | 24058 ft | 329 kts | 285° |
| 2026-04-29 13:40 | 49.22446 | -123.37020 | 24055 ft | 329 kts | 286° |
| 2026-04-29 13:40 | 49.22835 | -123.40444 | 24057 ft | 329 kts | 286° |
| 2026-04-29 13:40 | 49.23226 | -123.43895 | 24060 ft | 328 kts | 286° |
| 2026-04-29 13:40 | 49.23616 | -123.47349 | 24058 ft | 328 kts | 286° |
| 2026-04-29 13:41 | 49.24000 | -123.50760 | 24056 ft | 328 kts | 286° |
| 2026-04-29 13:41 | 49.24386 | -123.54192 | 24057 ft | 328 kts | 286° |
| 2026-04-29 13:41 | 49.24771 | -123.57634 | 24060 ft | 328 kts | 286° |
| 2026-04-29 13:41 | 49.25150 | -123.61029 | 24050 ft | 327 kts | 285° |
| 2026-04-29 13:42 | 49.25530 | -123.64442 | 24053 ft | 326 kts | 285° |
| 2026-04-29 13:42 | 49.25908 | -123.67847 | 24053 ft | 325 kts | 285° |
| 2026-04-29 13:42 | 49.26288 | -123.71277 | 24052 ft | 325 kts | 285° |
| 2026-04-29 13:42 | 49.26662 | -123.74664 | 24055 ft | 325 kts | 285° |
| 2026-04-29 13:43 | 49.27036 | -123.78054 | 24059 ft | 325 kts | 285° |
| 2026-04-29 13:43 | 49.27410 | -123.81455 | 24066 ft | 325 kts | 285° |
| 2026-04-29 13:43 | 49.27786 | -123.84886 | 24066 ft | 325 kts | 285° |
| 2026-04-29 13:43 | 49.28159 | -123.88302 | 24065 ft | 325 kts | 285° |
| 2026-04-29 13:44 | 49.28526 | -123.91675 | 24062 ft | 324 kts | 285° |
| 2026-04-29 13:44 | 49.28894 | -123.95062 | 24066 ft | 324 kts | 285° |
| 2026-04-29 13:44 | 49.29265 | -123.98486 | 24061 ft | 323 kts | 285° |
| 2026-04-29 13:44 | 49.29628 | -124.01853 | 24064 ft | 322 kts | 285° |
| 2026-04-29 13:45 | 49.29989 | -124.05204 | 24061 ft | 322 kts | 285° |
| 2026-04-29 13:45 | 49.30356 | -124.08618 | 24060 ft | 322 kts | 285° |
| 2026-04-29 13:45 | 49.30716 | -124.11987 | 24063 ft | 321 kts | 285° |
| 2026-04-29 13:45 | 49.31075 | -124.15350 | 24053 ft | 321 kts | 285° |
| 2026-04-29 13:46 | 49.31432 | -124.18700 | 24055 ft | 321 kts | 285° |
| 2026-04-29 13:46 | 49.31789 | -124.22066 | 24051 ft | 321 kts | 285° |
| 2026-04-29 13:46 | 49.32147 | -124.25445 | 24041 ft | 321 kts | 285° |
| 2026-04-29 13:46 | 49.32505 | -124.28835 | 24041 ft | 320 kts | 285° |
| 2026-04-29 13:47 | 49.32858 | -124.32192 | 24045 ft | 320 kts | 285° |
| 2026-04-29 13:47 | 49.33213 | -124.35577 | 24046 ft | 320 kts | 285° |
| 2026-04-29 13:47 | 49.33563 | -124.38918 | 24042 ft | 320 kts | 285° |
| 2026-04-29 13:47 | 49.33915 | -124.42292 | 24035 ft | 319 kts | 285° |
| 2026-04-29 13:48 | 49.34266 | -124.45670 | 24035 ft | 319 kts | 285° |
| 2026-04-29 13:48 | 49.34614 | -124.49025 | 24034 ft | 319 kts | 285° |
| 2026-04-29 13:48 | 49.34964 | -124.52409 | 24032 ft | 319 kts | 285° |
| 2026-04-29 13:48 | 49.35307 | -124.55731 | 24031 ft | 319 kts | 285° |
| 2026-04-29 13:49 | 49.35654 | -124.59116 | 24033 ft | 319 kts | 285° |
| 2026-04-29 13:49 | 49.35998 | -124.62471 | 24038 ft | 318 kts | 285° |
| 2026-04-29 13:49 | 49.36337 | -124.65784 | 24035 ft | 318 kts | 284° |
| 2026-04-29 13:49 | 49.36681 | -124.69173 | 24041 ft | 317 kts | 284° |
| 2026-04-29 13:50 | 49.37022 | -124.72528 | 24042 ft | 318 kts | 284° |
| 2026-04-29 13:50 | 49.37360 | -124.75863 | 24047 ft | 318 kts | 284° |
| 2026-04-29 13:50 | 49.37699 | -124.79210 | 24044 ft | 318 kts | 284° |
| 2026-04-29 13:50 | 49.38038 | -124.82572 | 24041 ft | 319 kts | 284° |
| 2026-04-29 13:51 | 49.38377 | -124.85957 | 24041 ft | 319 kts | 284° |
| 2026-04-29 13:51 | 49.38718 | -124.89240 | 24013 ft | 301 kts | 284° |
| 2026-04-29 13:51 | 49.38995 | -124.92248 | 24007 ft | 273 kts | 284° |
| 2026-04-29 13:51 | 49.39241 | -124.94978 | 24004 ft | 244 kts | 285° |
| 2026-04-29 13:52 | 49.39460 | -124.97426 | 23993 ft | 214 kts | 285° |
| 2026-04-29 13:52 | 49.39640 | -124.99509 | 23964 ft | 182 kts | 286° |
| 2026-04-29 13:52 | 49.39791 | -125.01295 | 23637 ft | 165 kts | 287° |
| 2026-04-29 13:52 | 49.39960 | -125.03055 | 22764 ft | 176 kts | 287° |
| 2026-04-29 13:53 | 49.40150 | -125.04920 | 22038 ft | 178 kts | 287° |
| 2026-04-29 13:53 | 49.40381 | -125.06710 | 21474 ft | 165 kts | 302° |
| 2026-04-29 13:53 | 49.41143 | -125.07908 | 20652 ft | 166 kts | 342° |
| 2026-04-29 13:53 | 49.42265 | -125.08101 | 19954 ft | 163 kts | 5° |
| 2026-04-29 13:54 | 49.43328 | -125.07655 | 19368 ft | 161 kts | 17° |
| 2026-04-29 13:54 | 49.44350 | -125.06918 | 18629 ft | 167 kts | 26° |
| 2026-04-29 13:54 | 49.45313 | -125.05965 | 17971 ft | 166 kts | 30° |
| 2026-04-29 13:54 | 49.46284 | -125.05070 | 17370 ft | 160 kts | 23° |
| 2026-04-29 13:55 | 49.47232 | -125.04244 | 16742 ft | 159 kts | 25° |
| 2026-04-29 13:55 | 49.48166 | -125.03382 | 16077 ft | 160 kts | 26° |
| 2026-04-29 13:55 | 49.49138 | -125.02562 | 15397 ft | 161 kts | 23° |
| 2026-04-29 13:55 | 49.50091 | -125.01747 | 14831 ft | 156 kts | 27° |
| 2026-04-29 13:56 | 49.51024 | -125.00967 | 14166 ft | 159 kts | 17° |
| 2026-04-29 13:56 | 49.52124 | -125.00449 | 13178 ft | 177 kts | 13° |
| 2026-04-29 13:56 | 49.53333 | -124.99938 | 12260 ft | 192 kts | 14° |
| 2026-04-29 13:56 | 49.54651 | -124.99423 | 11271 ft | 205 kts | 14° |
| 2026-04-29 13:57 | 49.56020 | -124.98837 | 10528 ft | 206 kts | 17° |
| 2026-04-29 13:57 | 49.57367 | -124.98171 | 9844 ft | 206 kts | 18° |
| 2026-04-29 13:57 | 49.58741 | -124.97486 | 9004 ft | 214 kts | 20° |
| 2026-04-29 13:57 | 49.59646 | -124.96962 | 8545 ft | 211 kts | 22° |
| 2026-04-29 13:58 | 49.61467 | -124.95876 | 7621 ft | 209 kts | 23° |
| 2026-04-29 13:58 | 49.62806 | -124.95019 | 6843 ft | 212 kts | 22° |
| 2026-04-29 13:58 | 49.64183 | -124.95020 | 6343 ft | 196 kts | 329° |
| 2026-04-29 13:58 | 49.64695 | -124.96738 | 5772 ft | 184 kts | 252° |
| 2026-04-29 13:59 | 49.63829 | -124.97900 | 5123 ft | 174 kts | 179° |
| 2026-04-29 13:59 | 49.62938 | -124.97023 | 4423 ft | 161 kts | 98° |
| 2026-04-29 13:59 | 49.63332 | -124.95574 | 3673 ft | 157 kts | 41° |
| 2026-04-29 13:59 | 49.64162 | -124.94572 | 3222 ft | 146 kts | 34° |
| 2026-04-29 14:00 | 49.65007 | -124.93775 | 2761 ft | 140 kts | 27° |
| 2026-04-29 14:00 | 49.65878 | -124.93160 | 2269 ft | 137 kts | 21° |
| 2026-04-29 14:00 | 49.66746 | -124.92603 | 1749 ft | 136 kts | 21° |
| 2026-04-29 14:00 | 49.67607 | -124.92069 | 1266 ft | 132 kts | 20° |
| 2026-04-29 14:01 | 49.68454 | -124.91554 | 751 ft | 131 kts | 21° |
| 2026-04-29 14:01 | 49.69291 | -124.91022 | 164 ft | 133 kts | 22° |
| 2026-04-29 14:01 | 49.69989 | -124.90527 | 16 ft | 87 kts | 23° |
| 2026-04-29 14:01 | 49.70382 | -124.90180 | 25 ft | 39 kts | 57° |
| 2026-04-29 14:02 | 49.70403 | -124.90010 | 27 ft | 0 kts | 103° |